Newark, NJ (07101)

5:12 PM EDT on August 23, 2016 (GMT -0400)
Central Business District | | Change Station

Elev 62 ft 40.74 °N, 74.17 °W | Updated 1 minute ago

Partly Cloudy
Partly Cloudy
77.0 °F
Feels Like 79 °F
N
0.6
Wind Variable Wind from West
Gusts 1.9 mph

Today
High -- | Low -- °F
--% Chance of Precip.
Yesterday
High -- | Low -- °F
Precip. -- in
Pressure 30.25 in
Visibility 10.0 miles
Clouds Few 6500 ft
Heat Index 79 °F
Dew Point 62 °F
Humidity 59%
Rainfall 0.00 in
Snow Depth Not available.
6:15 AM 7:42 PM
Waning Gibbous, 64% visible
METAR KEWR 232051Z 26009KT 10SM FEW065 28/11 A3025 RMK AO2 SLP243 T02830106 56012
Pressure 30.25 in
Visibility 10.0 miles
Clouds Few 6500 ft
Heat Index 79 °F
Dew Point 62 °F
Humidity 59%
Rainfall 0.00 in
Snow Depth Not available.
6:15 AM 7:42 PM
Waning Gibbous, 64% visible
METAR KEWR 232051Z 26009KT 10SM FEW065 28/11 A3025 RMK AO2 SLP243 T02830106 56012

10-Day Weather Forecast

Almanac

Astronomy

Aug. 23, 2016 Rise Set
Actual Time
Civil Twilight
Nautical Twilight
Astronomical Twilight
Moon
Length of Visible Light
Length of Day
Tomorrow will be .
, % of the Moon is Illuminated

Today's Extremes

State Highs State Lows

Community

WunderPhotos

Upload Photos

1,934,456 photos uploaded!

WunderBlog® & News

Nearby

Air Quality

  Air Quality AQ Index Pollutant
Not available.

Snow Depth

Station Depth Elevation

Earthquake Activity

City Distance Mag. Time & Date
Minimum magnitude displayed is 2.5.

Coastal Water Temperatures

Place Temperature

Stations

Nearby Weather Stations

Station Location Temp. Windchill Dew Point Humidity Wind Precip. Elev Updated Type
                   

Watches & Warnings

There are currently no watches in effect.